Time;durP1;ratioP1;P1;durP2;ratioP2;P2;SDS_P1;SDS_P2;PMS_P1;PMS_P2;Temp;Humidity;BMP_temperature;BMP_pressure;BME280_temperature;BME280_humidity;BME280_pressure;Samples;Min_cycle;Max_cycle;Signal;HPM_P1;HPM_P2
2022/12/21 05:02:06;;;;;;;5.15;4.72;;;7.60;99.90;;;;;;5217581;23;20337;-66
2022/12/21 05:04:33;;;;;;;4.22;3.80;;;7.60;99.90;;;;;;4982767;28;20213;-66
2022/12/21 05:06:59;;;;;;;2.95;2.72;;;7.70;99.90;;;;;;4970419;28;20320;-66
2022/12/21 05:09:26;;;;;;;5.95;3.58;;;7.60;99.90;;;;;;4971127;28;20226;-66
2022/12/21 05:11:54;;;;;;;3.20;2.92;;;7.60;99.90;;;;;;4951392;28;20228;-66
2022/12/21 05:14:21;;;;;;;6.50;4.63;;;7.70;99.90;;;;;;4946260;28;20215;-66
2022/12/21 05:16:48;;;;;;;4.03;2.55;;;7.70;99.90;;;;;;4955262;28;20208;-65
2022/12/21 05:19:16;;;;;;;7.63;3.25;;;7.70;99.90;;;;;;4962354;28;20212;-65
2022/12/21 05:21:43;;;;;;;4.40;4.00;;;7.70;99.90;;;;;;4951535;28;20245;-66
2022/12/21 05:24:10;;;;;;;3.28;2.38;;;7.60;99.90;;;;;;4946464;28;20792;-66
2022/12/21 05:26:36;;;;;;;5.95;4.53;;;7.60;99.90;;;;;;4953748;28;20224;-66
2022/12/21 05:29:03;;;;;;;3.67;3.45;;;7.60;99.90;;;;;;4994853;23;20245;-66
2022/12/21 05:31:30;;;;;;;6.75;3.85;;;7.60;99.90;;;;;;4979340;28;20203;-66
2022/12/21 05:33:57;;;;;;;4.78;4.03;;;7.60;99.90;;;;;;4975596;28;20211;-66
2022/12/21 05:36:25;;;;;;;4.05;3.72;;;7.60;99.90;;;;;;4980251;28;20207;-66
2022/12/21 05:38:52;;;;;;;8.68;4.45;;;7.60;99.90;;;;;;4981374;28;20288;-66
2022/12/21 05:41:19;;;;;;;6.82;6.07;;;7.60;99.90;;;;;;4974097;28;20211;-65
2022/12/21 05:43:46;;;;;;;5.72;3.70;;;7.60;99.90;;;;;;4979274;28;20216;-65
2022/12/21 05:46:14;;;;;;;8.18;4.18;;;7.60;99.90;;;;;;4980917;28;20690;-66
2022/12/21 05:48:40;;;;;;;4.18;3.88;;;7.60;99.90;;;;;;4978701;28;20245;-65
2022/12/21 05:51:08;;;;;;;3.90;3.50;;;7.60;99.90;;;;;;4979115;28;20210;-65
2022/12/21 05:53:37;;;;;;;4.05;3.10;;;7.60;99.90;;;;;;4978132;28;20676;-65
2022/12/21 05:56:04;;;;;;;7.13;4.10;;;7.50;99.90;;;;;;4975332;28;20302;-65
2022/12/21 05:58:31;;;;;;;4.97;3.90;;;7.50;99.90;;;;;;4977561;28;20710;-65
2022/12/21 06:01:01;;;;;;;5.43;3.22;;;7.50;99.90;;;;;;4980685;28;20258;-65
2022/12/21 06:03:27;;;;;;;5.13;3.85;;;7.50;99.90;;;;;;4985346;28;20218;-65
2022/12/21 06:05:54;;;;;;;4.70;4.30;;;7.50;99.90;;;;;;4989963;28;20318;-66
2022/12/21 06:08:21;;;;;;;5.55;4.28;;;7.50;99.90;;;;;;4982404;28;20227;-65
2022/12/21 06:10:49;;;;;;;5.70;4.25;;;7.50;99.90;;;;;;4982183;28;20219;-66
2022/12/21 06:13:15;;;;;;;3.80;3.55;;;7.50;99.90;;;;;;4983090;28;20213;-66
2022/12/21 06:15:42;;;;;;;6.70;3.80;;;7.50;99.90;;;;;;4976756;28;20302;-66
2022/12/21 06:18:09;;;;;;;11.38;5.20;;;7.50;99.90;;;;;;4980028;28;20239;-66
2022/12/21 06:20:35;;;;;;;4.75;3.17;;;7.40;99.90;;;;;;4983782;28;20700;-66
2022/12/21 06:23:02;;;;;;;6.07;4.35;;;7.50;99.90;;;;;;4983055;28;20268;-66
2022/12/21 06:25:30;;;;;;;7.85;6.13;;;7.40;99.90;;;;;;4978133;28;20207;-66
2022/12/21 06:27:58;;;;;;;9.57;6.55;;;7.40;99.90;;;;;;4977826;28;20752;-65
2022/12/21 06:30:25;;;;;;;7.20;5.78;;;7.40;99.90;;;;;;4981840;28;21406;-66
2022/12/21 06:32:51;;;;;;;28.88;4.68;;;7.40;99.90;;;;;;4981362;28;20211;-65
2022/12/21 06:35:18;;;;;;;11.63;4.82;;;7.40;99.90;;;;;;4979957;28;20540;-65
2022/12/21 06:37:45;;;;;;;4.55;4.10;;;7.40;99.90;;;;;;4988898;28;20234;-66
2022/12/21 06:40:12;;;;;;;6.55;5.30;;;7.40;99.90;;;;;;4990243;28;20206;-65
2022/12/21 06:42:39;;;;;;;5.53;2.88;;;7.40;99.90;;;;;;4978337;28;20215;-65
2022/12/21 06:45:07;;;;;;;9.90;7.07;;;7.40;99.90;;;;;;4987393;28;20215;-66
2022/12/21 06:47:34;;;;;;;12.10;5.90;;;7.40;99.90;;;;;;4978298;28;20222;-65
2022/12/21 06:50:01;;;;;;;5.85;5.38;;;7.40;99.90;;;;;;4974992;28;20289;-66
2022/12/21 06:52:27;;;;;;;9.90;8.07;;;7.40;99.90;;;;;;4990585;28;20210;-66
2022/12/21 06:54:55;;;;;;;6.35;5.30;;;7.50;99.90;;;;;;4988098;28;20215;-65
2022/12/21 06:57:21;;;;;;;7.95;6.40;;;7.50;99.90;;;;;;4976765;28;20235;-66
2022/12/21 06:59:48;;;;;;;14.63;8.18;;;7.50;99.90;;;;;;4973488;28;20222;-65
2022/12/21 07:02:16;;;;;;;7.22;5.55;;;7.50;99.90;;;;;;4986631;28;20215;-65
2022/12/21 07:04:43;;;;;;;6.75;3.55;;;7.50;99.90;;;;;;4980972;28;20207;-65
2022/12/21 07:07:09;;;;;;;9.35;3.90;;;7.50;99.90;;;;;;4980134;28;20230;-65
2022/12/21 07:09:36;;;;;;;6.15;4.43;;;7.50;99.90;;;;;;4982568;28;20688;-65
2022/12/21 07:12:03;;;;;;;7.53;3.78;;;7.50;99.90;;;;;;4985894;28;20262;-65
2022/12/21 07:14:30;;;;;;;9.98;3.83;;;7.40;99.90;;;;;;4988034;28;20258;-65
2022/12/21 07:16:56;;;;;;;2.97;2.83;;;7.40;99.90;;;;;;4991889;28;20215;-65
2022/12/21 07:19:25;;;;;;;5.75;4.97;;;7.40;99.90;;;;;;4979303;28;20715;-65
2022/12/21 07:21:52;;;;;;;8.48;4.57;;;7.40;99.90;;;;;;4984796;28;20262;-64
2022/12/21 07:24:18;;;;;;;6.13;4.35;;;7.50;99.90;;;;;;4979812;28;20211;-65
2022/12/21 07:26:45;;;;;;;6.28;3.55;;;7.40;99.90;;;;;;4987460;28;20560;-65
2022/12/21 07:29:12;;;;;;;9.13;6.50;;;7.50;99.90;;;;;;4984418;28;20239;-65
2022/12/21 07:31:39;;;;;;;5.20;3.38;;;7.40;99.90;;;;;;4984184;28;20213;-65
2022/12/21 07:34:06;;;;;;;4.13;3.35;;;7.50;99.90;;;;;;4980648;28;20238;-65
2022/12/21 07:36:35;;;;;;;7.22;2.85;;;7.50;99.90;;;;;;4979475;28;20361;-67
2022/12/21 07:39:02;;;;;;;7.32;4.60;;;7.50;99.90;;;;;;4978800;28;20246;-66
2022/12/21 07:41:29;;;;;;;10.93;6.45;;;7.50;99.90;;;;;;4982561;28;20850;-66
2022/12/21 07:43:56;;;;;;;11.93;5.70;;;7.50;99.90;;;;;;4984665;28;20257;-66
2022/12/21 07:46:22;;;;;;;15.98;6.38;;;7.50;99.90;;;;;;4981458;28;20642;-66
2022/12/21 07:48:50;;;;;;;6.13;4.35;;;7.50;99.90;;;;;;4984425;28;20641;-66
2022/12/21 07:51:17;;;;;;;6.90;5.10;;;7.50;99.90;;;;;;4979882;28;20214;-65
2022/12/21 07:53:46;;;;;;;10.65;5.28;;;7.50;99.90;;;;;;4978309;28;20207;-65
2022/12/21 07:56:14;;;;;;;21.85;10.25;;;7.50;99.90;;;;;;4992689;28;20576;-66
2022/12/21 07:58:41;;;;;;;28.58;15.15;;;7.50;99.90;;;;;;4985326;28;20231;-66
2022/12/21 08:01:10;;;;;;;11.68;7.55;;;7.50;99.90;;;;;;4986198;28;20206;-66
2022/12/21 08:03:38;;;;;;;15.88;11.13;;;7.60;99.90;;;;;;4976976;28;20580;-66
2022/12/21 08:06:06;;;;;;;12.73;6.93;;;7.60;99.90;;;;;;4973823;28;20757;-66
2022/12/21 08:08:33;;;;;;;28.13;12.52;;;7.60;99.90;;;;;;4990015;28;20261;-66
2022/12/21 08:11:01;;;;;;;13.20;9.27;;;7.60;99.90;;;;;;4974122;28;20209;-66
2022/12/21 08:13:29;;;;;;;15.55;7.25;;;7.70;99.90;;;;;;4978681;28;20305;-66
2022/12/21 08:16:00;;;;;;;9.30;6.47;;;7.70;99.90;;;;;;4990686;28;20984;-66
2022/12/21 08:18:28;;;;;;;12.68;5.95;;;7.70;99.90;;;;;;4979432;28;20397;-66
2022/12/21 08:20:55;;;;;;;7.75;3.92;;;7.70;99.90;;;;;;4981005;28;20559;-65
2022/12/21 08:23:21;;;;;;;10.10;7.55;;;7.70;99.90;;;;;;4985070;28;20211;-66
2022/12/21 08:25:48;;;;;;;12.27;8.43;;;7.70;99.90;;;;;;4984908;28;20218;-66
2022/12/21 08:28:17;;;;;;;10.73;9.00;;;7.70;99.90;;;;;;4990910;28;20238;-65
2022/12/21 08:30:44;;;;;;;17.65;11.88;;;7.70;99.90;;;;;;4985442;28;20215;-66
2022/12/21 08:33:10;;;;;;;8.23;4.85;;;7.70;99.90;;;;;;4982758;28;20581;-65
2022/12/21 08:35:37;;;;;;;19.90;7.97;;;7.70;99.90;;;;;;4983668;28;20315;-65
2022/12/21 08:38:04;;;;;;;19.05;9.73;;;7.70;99.90;;;;;;4977390;28;20460;-65
2022/12/21 08:40:31;;;;;;;15.07;5.57;;;7.80;99.90;;;;;;4988159;28;20284;-65
2022/12/21 08:42:58;;;;;;;7.10;4.72;;;7.80;99.90;;;;;;4989897;28;20225;-65
2022/12/21 08:45:26;;;;;;;11.38;5.75;;;7.70;99.90;;;;;;4992021;28;20769;-65
2022/12/21 08:47:53;;;;;;;10.02;5.72;;;7.70;99.90;;;;;;4990396;28;20266;-65
2022/12/21 08:50:20;;;;;;;9.95;6.15;;;7.70;99.90;;;;;;4980110;28;20582;-66
2022/12/21 08:52:48;;;;;;;21.63;11.95;;;7.70;99.90;;;;;;4979957;28;20218;-66
2022/12/21 08:55:14;;;;;;;13.55;9.05;;;7.70;99.90;;;;;;4983179;28;20225;-65
2022/12/21 08:57:41;;;;;;;6.05;5.45;;;7.80;99.90;;;;;;4982171;28;20289;-65
2022/12/21 09:00:10;;;;;;;22.92;12.68;;;7.80;99.90;;;;;;4982954;28;20271;-65
2022/12/21 09:02:38;;;;;;;17.33;10.48;;;7.80;99.90;;;;;;4982901;28;20650;-66
2022/12/21 09:05:06;;;;;;;8.75;5.20;;;7.80;99.90;;;;;;4989490;28;20305;-66
2022/12/21 09:07:32;;;;;;;28.40;15.38;;;7.80;99.90;;;;;;4986874;28;20915;-66
2022/12/21 09:09:59;;;;;;;37.40;21.67;;;7.80;99.90;;;;;;4987720;28;20211;-66
2022/12/21 09:12:27;;;;;;;27.83;15.95;;;7.80;99.90;;;;;;4984767;28;20577;-66
2022/12/21 09:14:54;;;;;;;11.70;7.10;;;7.80;99.90;;;;;;4976030;28;20207;-66
2022/12/21 09:17:20;;;;;;;9.38;5.53;;;7.80;99.90;;;;;;4986228;28;20665;-66
2022/12/21 09:19:48;;;;;;;7.82;6.40;;;7.80;99.90;;;;;;4990755;28;20320;-66
2022/12/21 09:22:15;;;;;;;43.38;19.23;;;7.80;99.90;;;;;;4979445;28;20206;-66
2022/12/21 09:24:42;;;;;;;45.47;22.90;;;7.80;99.90;;;;;;4980214;28;20669;-66
2022/12/21 09:27:08;;;;;;;17.55;9.73;;;7.90;99.90;;;;;;4987231;28;20233;-66
2022/12/21 09:29:35;;;;;;;10.88;5.97;;;7.90;99.90;;;;;;4985295;28;20689;-66
2022/12/21 09:32:02;;;;;;;7.40;6.70;;;7.90;99.90;;;;;;4979397;28;20267;-66
2022/12/21 09:34:29;;;;;;;76.45;39.75;;;7.90;99.90;;;;;;4979164;28;20243;-66
2022/12/21 09:36:59;;;;;;;44.80;23.55;;;7.90;99.90;;;;;;4986731;28;20257;-66
2022/12/21 09:39:25;;;;;;;19.70;9.75;;;7.90;99.90;;;;;;4984714;28;20708;-66
2022/12/21 09:42:17;;;;;;;28.77;12.07;;;7.90;99.90;;;;;;4985172;28;20214;-66
2022/12/21 09:44:58;;;;;;;18.25;9.82;;;7.90;99.90;;;;;;4983934;28;20214;-66
2022/12/21 09:47:32;;;;;;;15.20;8.35;;;7.90;99.90;;;;;;4984695;28;20585;-66
2022/12/21 09:50:02;;;;;;;18.73;8.25;;;7.90;99.90;;;;;;4984864;28;20206;-66
2022/12/21 09:52:37;;;;;;;32.17;15.10;;;7.90;99.90;;;;;;4980054;28;20265;-66
2022/12/21 09:55:10;;;;;;;48.33;16.73;;;7.90;99.90;;;;;;4979309;28;20584;-66
2022/12/21 09:57:37;;;;;;;22.45;12.50;;;8.00;99.90;;;;;;4981719;28;20299;-66
2022/12/21 10:00:13;;;;;;;31.67;16.50;;;8.00;99.90;;;;;;4979910;28;20218;-66
2022/12/21 10:03:04;;;;;;;46.92;14.43;;;8.10;99.90;;;;;;4983144;28;20211;-66
2022/12/21 10:05:49;;;;;;;28.60;10.02;;;8.10;99.90;;;;;;4971870;28;20215;-66
2022/12/21 10:08:55;;;;;;;12.90;7.40;;;8.10;99.90;;;;;;4982813;28;20242;-66
2022/12/21 10:11:38;;;;;;;17.90;6.50;;;8.10;99.90;;;;;;4980705;28;20255;-66
2022/12/21 10:14:13;;;;;;;3.25;1.88;;;8.10;99.90;;;;;;4987158;28;20206;-66
2022/12/21 10:16:49;;;;;;;11.57;6.68;;;8.10;99.90;;;;;;4979104;28;20341;-67
2022/12/21 10:19:25;;;;;;;11.32;5.75;;;8.10;99.90;;;;;;4980017;28;20587;-67
2022/12/21 10:22:00;;;;;;;11.02;6.10;;;8.10;99.90;;;;;;4987163;28;20256;-67
2022/12/21 10:24:32;;;;;;;4.03;3.50;;;8.10;99.90;;;;;;4980628;28;20575;-66
2022/12/21 10:27:04;;;;;;;12.52;4.03;;;8.10;99.90;;;;;;4978328;28;20231;-67
2022/12/21 10:29:35;;;;;;;34.50;9.20;;;8.10;99.90;;;;;;4978898;28;20242;-67
2022/12/21 10:32:02;;;;;;;13.10;6.80;;;8.10;99.90;;;;;;4977280;28;20214;-67
2022/12/21 10:34:33;;;;;;;9.23;6.45;;;8.10;99.90;;;;;;4980254;28;20248;-67
2022/12/21 10:37:01;;;;;;;8.57;5.40;;;8.10;99.90;;;;;;4983899;28;20210;-67
2022/12/21 10:39:30;;;;;;;5.88;3.83;;;8.10;99.90;;;;;;4974352;28;20223;-67
2022/12/21 10:42:05;;;;;;;5.28;2.95;;;8.10;99.90;;;;;;4978753;28;20217;-67
2022/12/21 10:44:35;;;;;;;4.80;1.80;;;8.20;99.90;;;;;;4986690;28;20211;-67
2022/12/21 10:47:02;;;;;;;5.47;3.78;;;8.20;99.90;;;;;;4996871;28;20211;-66
2022/12/21 10:49:34;;;;;;;18.83;6.40;;;8.30;99.90;;;;;;4993518;28;20235;-67
2022/12/21 10:52:39;;;;;;;38.67;21.77;;;8.30;99.90;;;;;;4984861;28;20212;-66
2022/12/21 10:55:07;;;;;;;22.50;13.70;;;8.40;99.90;;;;;;4988947;28;20211;-67
2022/12/21 10:57:36;;;;;;;11.15;7.05;;;8.40;99.90;;;;;;4985777;28;20234;-67
2022/12/21 11:00:23;;;;;;;10.40;4.45;;;8.40;99.90;;;;;;4983135;28;20214;-66
2022/12/21 11:02:52;;;;;;;3.47;3.03;;;8.40;99.90;;;;;;4989221;28;20215;-67
2022/12/21 11:05:27;;;;;;;6.55;4.72;;;8.40;99.90;;;;;;4991994;28;20215;-67
2022/12/21 11:07:53;;;;;;;7.97;4.78;;;8.40;99.90;;;;;;4985038;28;20228;-67
2022/12/21 11:10:26;;;;;;;12.02;7.45;;;8.40;99.90;;;;;;4978226;28;20286;-67
2022/12/21 11:12:55;;;;;;;4.88;4.47;;;8.40;99.90;;;;;;4980786;28;20214;-67
2022/12/21 11:15:25;;;;;;;14.82;5.90;;;8.40;99.90;;;;;;4983364;28;20709;-67
2022/12/21 11:17:51;;;;;;;9.38;5.75;;;8.50;99.90;;;;;;4984803;28;20230;-67
2022/12/21 11:20:21;;;;;;;7.22;3.70;;;8.50;99.90;;;;;;4986341;28;20221;-66
2022/12/21 11:22:51;;;;;;;5.82;4.40;;;8.50;99.90;;;;;;4983091;28;20299;-67
2022/12/21 11:25:20;;;;;;;7.90;3.50;;;8.50;99.90;;;;;;4990206;28;20306;-67
2022/12/21 11:27:49;;;;;;;26.92;7.85;;;8.50;99.90;;;;;;4990936;28;20239;-66
2022/12/21 11:30:21;;;;;;;14.10;7.28;;;8.50;99.90;;;;;;4984144;28;20227;-66
2022/12/21 11:32:50;;;;;;;20.45;5.22;;;8.50;99.90;;;;;;4986392;28;20215;-66
2022/12/21 11:35:21;;;;;;;9.43;6.22;;;8.50;99.90;;;;;;4976891;28;20250;-65
2022/12/21 11:37:53;;;;;;;21.23;12.50;;;8.60;99.90;;;;;;4986593;28;20234;-64
2022/12/21 11:40:22;;;;;;;14.93;8.73;;;8.60;99.90;;;;;;4989360;28;20214;-64
2022/12/21 11:42:55;;;;;;;16.80;10.20;;;8.60;99.90;;;;;;4985307;28;20219;-65
2022/12/21 11:45:26;;;;;;;5.53;3.85;;;8.70;99.90;;;;;;4980299;28;20298;-64
2022/12/21 11:48:12;;;;;;;14.27;6.47;;;8.70;99.90;;;;;;4980948;28;20235;-66
2022/12/21 11:50:51;;;;;;;7.30;4.28;;;8.70;99.90;;;;;;4977454;28;20218;-65
2022/12/21 11:53:39;;;;;;;8.10;5.47;;;8.70;99.90;;;;;;4978016;28;20215;-65
2022/12/21 11:56:21;;;;;;;6.90;4.75;;;8.70;99.90;;;;;;4976243;28;20244;-65
2022/12/21 11:59:10;;;;;;;11.00;5.60;;;8.70;99.90;;;;;;4990144;28;20239;-65
2022/12/21 12:01:48;;;;;;;15.52;4.35;;;8.70;99.90;;;;;;4979463;28;20307;-65
2022/12/21 12:04:32;;;;;;;15.20;6.03;;;8.70;99.90;;;;;;4980963;28;20729;-65
2022/12/21 12:07:16;;;;;;;8.55;5.45;;;8.70;99.90;;;;;;4983837;28;20211;-66
2022/12/21 12:10:04;;;;;;;24.58;7.00;;;8.70;99.90;;;;;;4984052;28;21477;-66
2022/12/21 12:12:41;;;;;;;14.80;7.50;;;8.70;99.90;;;;;;4978032;28;20278;-65
2022/12/21 12:15:31;;;;;;;11.43;4.80;;;8.70;99.90;;;;;;4984045;28;20223;-65
2022/12/21 12:18:14;;;;;;;15.93;6.45;;;8.70;99.90;;;;;;4974048;28;20235;-66
2022/12/21 12:20:51;;;;;;;13.48;6.88;;;8.70;99.90;;;;;;4983761;28;20254;-65
2022/12/21 12:23:27;;;;;;;6.60;5.75;;;8.70;99.90;;;;;;4974623;28;20213;-65
2022/12/21 12:26:07;;;;;;;7.95;4.70;;;8.70;99.90;;;;;;4982660;28;20551;-66
2022/12/21 12:29:06;;;;;;;7.20;5.15;;;8.70;99.90;;;;;;4980696;28;20258;-65
2022/12/21 12:31:46;;;;;;;8.85;4.70;;;8.70;99.90;;;;;;4966205;28;20618;-65
2022/12/21 12:34:38;;;;;;;7.22;4.35;;;8.60;99.90;;;;;;4980693;28;20625;-67
2022/12/21 12:37:19;;;;;;;4.70;4.25;;;8.60;99.90;;;;;;4983203;28;20218;-66
2022/12/21 12:39:54;;;;;;;6.45;4.22;;;8.60;99.90;;;;;;4980100;28;20207;-66
2022/12/21 12:42:25;;;;;;;8.90;5.13;;;8.60;99.90;;;;;;4973048;28;20222;-65
2022/12/21 12:45:03;;;;;;;10.15;4.20;;;8.60;99.90;;;;;;4981922;28;20264;-66
2022/12/21 12:47:40;;;;;;;7.53;4.82;;;8.60;99.90;;;;;;4983221;28;20215;-66
2022/12/21 12:50:21;;;;;;;14.73;6.53;;;8.60;99.90;;;;;;4983311;28;20259;-66
2022/12/21 12:53:03;;;;;;;3.92;3.60;;;8.60;99.90;;;;;;4983777;28;20236;-66
2022/12/21 12:55:39;;;;;;;10.80;6.03;;;8.60;99.90;;;;;;4979656;28;20691;-66
2022/12/21 12:58:15;;;;;;;7.57;4.22;;;8.50;99.90;;;;;;4977375;28;20288;-66
2022/12/21 13:01:00;;;;;;;10.98;5.25;;;8.50;99.90;;;;;;4980118;28;20211;-66
2022/12/21 13:03:44;;;;;;;16.67;7.38;;;8.50;99.90;;;;;;4980740;28;20207;-65
2022/12/21 13:06:22;;;;;;;8.77;5.45;;;8.40;99.90;;;;;;4985118;28;20226;-65
2022/12/21 13:09:00;;;;;;;8.02;4.60;;;8.40;99.90;;;;;;4980061;28;20239;-65
2022/12/21 13:11:39;;;;;;;13.13;6.30;;;8.30;99.90;;;;;;4984569;28;20217;-66
2022/12/21 13:14:12;;;;;;;5.75;4.00;;;8.30;99.90;;;;;;4982172;28;20298;-66
2022/12/21 13:16:45;;;;;;;5.30;4.88;;;8.30;99.90;;;;;;4977648;28;20222;-66
2022/12/21 13:19:17;;;;;;;9.52;5.00;;;8.30;99.90;;;;;;4981501;28;20259;-66
2022/12/21 13:21:48;;;;;;;6.88;4.82;;;8.30;99.90;;;;;;4990982;28;20234;-66
2022/12/21 13:24:19;;;;;;;14.90;9.07;;;8.30;99.90;;;;;;4982951;28;20222;-67
2022/12/21 13:26:49;;;;;;;8.95;6.28;;;8.20;99.90;;;;;;4976008;28;20230;-66
2022/12/21 13:29:21;;;;;;;12.05;7.38;;;8.20;99.90;;;;;;4982494;28;20235;-66
2022/12/21 13:31:51;;;;;;;18.13;5.80;;;8.20;99.90;;;;;;4981943;28;20276;-66
2022/12/21 13:34:22;;;;;;;11.98;5.60;;;8.20;99.90;;;;;;4978871;28;20282;-65
2022/12/21 13:36:51;;;;;;;11.82;7.68;;;8.20;99.90;;;;;;4983689;28;20271;-66
2022/12/21 13:39:24;;;;;;;9.20;5.72;;;8.20;99.90;;;;;;4976742;28;20222;-66
2022/12/21 13:41:54;;;;;;;12.95;8.38;;;8.10;99.90;;;;;;4981024;28;20623;-66
2022/12/21 13:44:29;;;;;;;13.38;7.65;;;8.10;99.90;;;;;;4974681;28;20211;-66
2022/12/21 13:46:58;;;;;;;14.82;9.70;;;8.10;99.90;;;;;;4982215;28;20302;-66
2022/12/21 13:49:39;;;;;;;14.73;7.85;;;8.10;99.90;;;;;;4975671;28;20297;-64
2022/12/21 13:52:15;;;;;;;10.27;4.95;;;8.10;99.90;;;;;;4978450;28;20222;-65
2022/12/21 13:54:51;;;;;;;11.55;7.85;;;8.10;99.90;;;;;;4988201;28;20212;-65
2022/12/21 13:57:27;;;;;;;9.73;6.50;;;8.10;99.90;;;;;;4985446;28;20237;-65
2022/12/21 14:00:02;;;;;;;14.02;5.78;;;8.10;99.90;;;;;;4975276;28;20203;-65
2022/12/21 14:02:42;;;;;;;7.35;5.05;;;8.10;99.90;;;;;;4976172;28;20305;-66
2022/12/21 14:05:15;;;;;;;6.50;3.58;;;8.00;99.90;;;;;;4978878;28;20282;-66
2022/12/21 14:08:17;;;;;;;4.60;4.10;;;8.00;99.90;;;;;;4977351;28;20313;-66
2022/12/21 14:10:55;;;;;;;3.65;3.35;;;8.00;99.90;;;;;;4952251;28;20280;-66
2022/12/21 14:13:47;;;;;;;4.45;3.50;;;7.90;99.90;;;;;;4984242;28;20214;-66
2022/12/21 14:16:20;;;;;;;9.07;8.38;;;7.90;99.90;;;;;;4962962;28;20211;-66
2022/12/21 14:18:53;;;;;;;6.95;5.45;;;7.90;99.90;;;;;;4988779;28;20223;-65
2022/12/21 14:21:23;;;;;;;7.53;4.93;;;7.80;99.90;;;;;;4977827;28;20219;-66
2022/12/21 14:23:54;;;;;;;5.70;4.60;;;7.80;99.90;;;;;;4977963;28;20665;-66
2022/12/21 14:26:36;;;;;;;7.20;2.63;;;7.80;99.90;;;;;;4978787;28;20218;-66
2022/12/21 14:29:12;;;;;;;4.78;4.45;;;7.70;99.90;;;;;;4985426;28;20226;-66
2022/12/21 14:31:48;;;;;;;9.52;6.65;;;7.70;99.90;;;;;;4979236;28;20594;-65
2022/12/21 14:34:15;;;;;;;5.53;3.50;;;7.60;99.90;;;;;;4978178;28;20647;-65
2022/12/21 14:37:20;;;;;;;8.85;5.32;;;7.60;99.90;;;;;;4984172;28;20236;-66
2022/12/21 14:40:24;;;;;;;3.10;2.28;;;7.60;99.90;;;;;;4980506;28;20210;-65
2022/12/21 14:42:55;;;;;;;4.63;4.30;;;7.50;99.90;;;;;;4979065;28;20206;-66
2022/12/21 14:45:26;;;;;;;8.27;5.78;;;7.50;99.90;;;;;;4987042;28;20865;-66
2022/12/21 14:48:44;;;;;;;9.48;5.03;;;7.50;99.90;;;;;;4986817;28;20265;-66
2022/12/21 14:51:50;;;;;;;8.38;3.92;;;7.50;99.90;;;;;;4968298;28;20240;-67
2022/12/21 14:54:24;;;;;;;9.90;4.25;;;7.50;99.90;;;;;;4969628;28;20302;-65
2022/12/21 14:57:18;;;;;;;6.28;4.95;;;7.40;99.90;;;;;;4981163;28;20209;-66
2022/12/21 14:59:48;;;;;;;7.63;5.03;;;7.40;99.90;;;;;;4975824;28;21129;-66
2022/12/21 15:02:23;;;;;;;5.28;3.25;;;7.40;99.90;;;;;;4990678;28;20218;-66
2022/12/21 15:04:55;;;;;;;4.15;2.92;;;7.30;99.90;;;;;;4989060;28;20305;-66
2022/12/21 15:07:25;;;;;;;3.25;3.03;;;7.30;99.90;;;;;;4979221;28;20268;-66
2022/12/21 15:09:55;;;;;;;7.18;3.33;;;7.20;99.90;;;;;;4984368;28;20579;-65
2022/12/21 15:12:36;;;;;;;9.05;4.25;;;7.20;99.90;;;;;;4989617;28;20252;-66
2022/12/21 15:15:14;;;;;;;3.05;2.45;;;7.10;99.90;;;;;;4978247;28;20213;-65
2022/12/21 15:17:41;;;;;;;6.05;5.55;;;7.10;99.90;;;;;;4979264;28;20270;-65
2022/12/21 15:20:44;;;;;;;7.03;6.30;;;7.10;99.90;;;;;;4979969;28;20214;-66
2022/12/21 15:23:17;;;;;;;13.85;5.15;;;7.00;99.90;;;;;;4980654;28;20226;-66
2022/12/21 15:25:44;;;;;;;12.63;7.38;;;7.00;99.90;;;;;;4983135;28;20206;-66
2022/12/21 15:28:18;;;;;;;7.00;4.50;;;6.90;99.90;;;;;;4975601;28;20246;-65
2022/12/21 15:30:51;;;;;;;15.18;9.43;;;6.90;99.90;;;;;;4981005;28;20205;-65
2022/12/21 15:33:21;;;;;;;9.57;4.55;;;6.90;99.90;;;;;;4986728;28;20213;-65
2022/12/21 15:35:53;;;;;;;17.98;6.88;;;6.90;99.90;;;;;;4991428;28;20214;-65
2022/12/21 15:38:22;;;;;;;16.25;8.77;;;6.90;99.90;;;;;;4992433;28;20225;-66
2022/12/21 15:40:57;;;;;;;13.52;5.50;;;6.80;99.90;;;;;;4980388;28;20229;-65
2022/12/21 15:43:30;;;;;;;13.02;8.02;;;6.80;99.90;;;;;;4982980;28;20253;-66
2022/12/21 15:46:03;;;;;;;6.05;5.65;;;6.80;99.90;;;;;;4982402;28;20298;-65
2022/12/21 15:48:37;;;;;;;16.83;6.65;;;6.80;99.90;;;;;;4985796;28;20234;-66
2022/12/21 15:51:16;;;;;;;6.13;5.53;;;6.70;99.90;;;;;;4984989;28;20210;-66
2022/12/21 15:53:43;;;;;;;7.05;4.95;;;6.60;99.90;;;;;;4986341;28;20629;-65
2022/12/21 15:56:16;;;;;;;13.27;4.78;;;6.60;99.90;;;;;;4989037;28;20396;-65
2022/12/21 15:58:44;;;;;;;7.18;4.22;;;6.50;99.90;;;;;;4986904;28;20227;-65
2022/12/21 16:01:14;;;;;;;13.05;5.63;;;6.50;99.90;;;;;;4980433;28;20306;-66
2022/12/21 16:03:42;;;;;;;7.32;6.65;;;6.50;99.90;;;;;;4978159;28;20270;-66
2022/12/21 16:06:13;;;;;;;9.88;5.75;;;6.50;99.90;;;;;;4975695;28;20202;-66
2022/12/21 16:08:41;;;;;;;7.15;6.32;;;6.60;99.90;;;;;;4981506;28;20293;-65
2022/12/21 16:11:25;;;;;;;19.05;7.07;;;6.60;99.90;;;;;;4990373;28;20237;-65
2022/12/21 16:14:00;;;;;;;6.88;4.93;;;6.60;99.90;;;;;;4987447;28;20204;-66
2022/12/21 16:16:27;;;;;;;18.10;7.95;;;6.60;99.90;;;;;;4984100;28;20296;-66
2022/12/21 16:18:56;;;;;;;9.90;7.10;;;6.60;99.90;;;;;;4989995;28;20234;-65
2022/12/21 16:21:31;;;;;;;9.05;7.32;;;6.60;99.90;;;;;;4980976;28;20206;-66
2022/12/21 16:23:59;;;;;;;16.00;6.93;;;6.60;99.90;;;;;;4984145;28;20241;-65
2022/12/21 16:26:29;;;;;;;7.45;5.18;;;6.50;99.90;;;;;;4976043;28;20295;-66
2022/12/21 16:28:59;;;;;;;4.15;3.80;;;6.50;99.90;;;;;;4980924;28;20247;-67
2022/12/21 16:31:44;;;;;;;3.88;3.17;;;6.40;99.90;;;;;;4981075;28;20214;-67
2022/12/21 16:34:28;;;;;;;6.63;5.50;;;6.40;99.90;;;;;;4985991;28;20340;-66
2022/12/21 16:37:11;;;;;;;10.45;5.45;;;6.30;99.90;;;;;;4984372;28;20233;-67
2022/12/21 16:39:38;;;;;;;3.53;2.60;;;6.20;99.90;;;;;;4987918;28;20209;-66
2022/12/21 16:42:05;;;;;;;12.30;6.50;;;6.20;99.90;;;;;;4985220;28;20217;-67
2022/12/21 16:44:39;;;;;;;9.50;5.32;;;6.20;99.90;;;;;;4985003;28;20598;-66
2022/12/21 16:47:16;;;;;;;6.40;5.72;;;6.20;99.90;;;;;;4987416;28;20258;-66
2022/12/21 16:49:44;;;;;;;7.15;5.38;;;6.20;99.90;;;;;;4985604;28;20229;-67
2022/12/21 16:52:48;;;;;;;15.75;4.68;;;6.20;99.90;;;;;;4978764;28;20260;-66
2022/12/21 16:55:26;;;;;;;8.65;5.65;;;6.10;99.90;;;;;;4975450;28;20215;-65
2022/12/21 16:57:56;;;;;;;7.95;7.20;;;6.10;99.90;;;;;;4976372;28;20584;-65
2022/12/21 17:00:27;;;;;;;5.43;3.75;;;6.00;99.90;;;;;;4983458;28;20198;-66
2022/12/21 17:02:58;;;;;;;7.63;5.60;;;6.00;99.90;;;;;;4980867;28;20560;-65
2022/12/21 17:05:28;;;;;;;3.00;2.70;;;6.00;99.90;;;;;;4982802;28;20221;-65
2022/12/21 17:07:58;;;;;;;11.70;6.25;;;6.00;99.90;;;;;;4983894;28;20224;-66
2022/12/21 17:10:25;;;;;;;9.50;5.03;;;6.10;99.90;;;;;;4978168;28;20297;-66
2022/12/21 17:12:55;;;;;;;9.93;7.47;;;6.10;99.90;;;;;;4976552;28;20205;-67
2022/12/21 17:15:32;;;;;;;5.03;4.18;;;6.00;99.90;;;;;;4980633;28;20214;-66
2022/12/21 17:17:59;;;;;;;9.32;6.93;;;6.00;99.90;;;;;;4988108;28;20287;-66
2022/12/21 17:20:36;;;;;;;6.05;5.03;;;6.00;99.90;;;;;;4979391;28;20210;-67
2022/12/21 17:23:17;;;;;;;6.97;6.03;;;5.90;99.90;;;;;;4981696;28;20695;-67
2022/12/21 17:25:45;;;;;;;7.97;5.63;;;5.80;99.90;;;;;;4976947;28;20232;-67
2022/12/21 17:28:14;;;;;;;4.80;4.03;;;5.80;99.90;;;;;;4977897;28;20234;-68
2022/12/21 17:30:44;;;;;;;8.18;6.85;;;5.80;99.90;;;;;;4978354;28;20229;-66
2022/12/21 17:33:20;;;;;;;8.25;5.38;;;5.80;99.90;;;;;;4981152;28;20289;-66
2022/12/21 17:35:47;;;;;;;9.05;5.55;;;5.80;99.90;;;;;;4983011;28;20309;-66
2022/12/21 17:38:13;;;;;;;16.92;6.60;;;5.90;99.90;;;;;;4982170;28;20330;-67
2022/12/21 17:40:40;;;;;;;11.68;7.28;;;5.90;99.90;;;;;;4987544;28;20304;-66
2022/12/21 17:43:07;;;;;;;5.90;5.43;;;5.90;99.90;;;;;;4980128;28;20726;-66
2022/12/21 17:45:34;;;;;;;11.80;8.32;;;6.00;99.90;;;;;;4975411;28;20267;-67
2022/12/21 17:48:03;;;;;;;9.00;4.22;;;6.00;99.90;;;;;;4981587;28;20324;-67
2022/12/21 17:50:31;;;;;;;12.77;7.03;;;6.10;99.90;;;;;;4974981;28;20225;-67
2022/12/21 17:53:00;;;;;;;10.32;5.15;;;6.10;99.90;;;;;;4983559;28;20309;-67
2022/12/21 17:55:28;;;;;;;36.67;9.95;;;6.10;99.90;;;;;;4986850;28;20205;-66
2022/12/21 17:57:54;;;;;;;11.25;6.20;;;6.20;99.90;;;;;;4986748;28;20699;-65
2022/12/21 18:00:24;;;;;;;12.10;6.65;;;6.10;99.90;;;;;;4982262;28;20550;-66
2022/12/21 18:02:54;;;;;;;24.55;10.80;;;6.10;99.90;;;;;;4989907;28;20213;-66
2022/12/21 18:05:23;;;;;;;14.88;10.38;;;6.20;99.90;;;;;;4980284;28;20229;-66
2022/12/21 18:07:51;;;;;;;18.83;9.90;;;6.20;99.90;;;;;;4978619;28;20600;-67
2022/12/21 18:10:19;;;;;;;11.55;8.30;;;6.30;99.90;;;;;;4977247;28;21198;-66
2022/12/21 18:12:48;;;;;;;9.20;7.80;;;6.30;99.90;;;;;;4984366;28;20279;-67
2022/12/21 18:15:15;;;;;;;12.65;6.53;;;6.40;99.90;;;;;;4982150;28;20210;-66
2022/12/21 18:17:47;;;;;;;22.10;9.30;;;6.40;99.90;;;;;;4979107;28;20240;-66
2022/12/21 18:20:15;;;;;;;19.73;10.52;;;6.40;99.90;;;;;;4983283;28;21372;-67